createdAt,value
2023-02-13T00:00:47.477Z,8.30
2023-02-13T00:01:49.065Z,8.36
2023-02-13T00:02:47.621Z,8.42
2023-02-13T00:03:47.589Z,8.45
2023-02-13T00:04:47.515Z,8.48
2023-02-13T00:05:47.419Z,8.49
2023-02-13T00:06:48.380Z,8.52
2023-02-13T00:07:47.368Z,8.55
2023-02-13T00:08:47.364Z,8.55
2023-02-13T00:09:47.341Z,8.49
2023-02-13T00:10:47.375Z,8.48
2023-02-13T00:11:48.431Z,8.49
2023-02-13T00:12:47.308Z,8.52
2023-02-13T00:13:47.324Z,8.51
2023-02-13T00:14:47.299Z,8.52
2023-02-13T00:15:47.427Z,8.52
2023-02-13T00:16:48.248Z,8.52
2023-02-13T00:17:47.300Z,8.55
2023-02-13T00:18:47.296Z,8.56
2023-02-13T00:19:47.336Z,8.56
2023-02-13T00:20:47.215Z,8.56
2023-02-13T00:21:53.517Z,8.52
2023-02-13T00:22:47.243Z,8.51
2023-02-13T00:23:47.237Z,8.55
2023-02-13T00:24:47.324Z,8.53
2023-02-13T00:25:47.227Z,8.55
2023-02-13T00:26:47.164Z,8.56
2023-02-13T00:27:53.456Z,8.58
2023-02-13T00:28:47.243Z,8.61
2023-02-13T00:29:47.124Z,8.61
2023-02-13T00:30:47.218Z,8.58
2023-02-13T00:31:47.214Z,8.56
2023-02-13T00:32:47.080Z,8.55
2023-02-13T00:33:48.060Z,8.55
2023-02-13T00:34:47.084Z,8.56
2023-02-13T00:35:47.043Z,8.55
2023-02-13T00:36:47.109Z,8.55
2023-02-13T00:37:47.039Z,8.55
2023-02-13T00:38:47.018Z,8.52
2023-02-13T00:39:47.995Z,8.51
2023-02-13T00:40:46.993Z,8.49
2023-02-13T00:41:46.991Z,8.46
2023-02-13T00:42:47.030Z,8.48
2023-02-13T00:43:46.930Z,8.51
2023-02-13T00:44:47.897Z,8.55
2023-02-13T00:45:47.063Z,8.55
2023-02-13T00:46:47.039Z,8.58
2023-02-13T00:47:46.869Z,8.60
2023-02-13T00:48:46.888Z,8.63
2023-02-13T00:49:53.392Z,8.61
2023-02-13T00:50:46.952Z,8.56
2023-02-13T00:51:46.786Z,8.55
2023-02-13T00:52:46.837Z,8.56
2023-02-13T00:53:46.765Z,8.58
2023-02-13T00:54:47.502Z,8.55
2023-02-13T00:55:47.817Z,8.55
2023-02-13T00:56:46.783Z,8.55
2023-02-13T00:57:46.774Z,8.56
2023-02-13T00:58:47.467Z,8.55
2023-02-13T00:59:46.721Z,8.53
2023-02-13T01:00:46.778Z,8.56
2023-02-13T01:01:53.146Z,8.58
2023-02-13T01:02:46.680Z,8.61
2023-02-13T01:03:46.768Z,8.63
2023-02-13T01:04:47.405Z,8.64
2023-02-13T01:05:46.634Z,8.63
2023-02-13T01:06:47.580Z,8.64
2023-02-13T01:07:46.605Z,8.66
2023-02-13T01:08:46.610Z,8.66
2023-02-13T01:09:46.742Z,8.66
2023-02-13T01:10:46.585Z,8.63
2023-02-13T01:11:47.550Z,8.61
2023-02-13T01:12:46.653Z,8.63
2023-02-13T01:13:46.858Z,8.61
2023-02-13T01:14:46.548Z,8.60
2023-02-13T01:15:46.625Z,8.60
2023-02-13T01:16:46.564Z,8.63
2023-02-13T01:17:47.512Z,8.66
2023-02-13T01:18:46.491Z,8.64
2023-02-13T01:19:46.587Z,8.64
2023-02-13T01:20:46.454Z,8.64
2023-02-13T01:21:46.436Z,8.66
2023-02-13T01:22:47.401Z,8.69
2023-02-13T01:23:46.404Z,8.71
2023-02-13T01:24:46.473Z,8.71
2023-02-13T01:25:46.474Z,8.73
2023-02-13T01:26:46.396Z,8.74
2023-02-13T01:27:47.371Z,8.78
2023-02-13T01:28:46.352Z,8.78
2023-02-13T01:29:46.369Z,8.76
2023-02-13T01:30:46.330Z,8.74
2023-02-13T01:31:46.403Z,8.78
2023-02-13T01:32:46.349Z,8.79
2023-02-13T01:33:52.620Z,8.79
2023-02-13T01:34:46.271Z,8.82
2023-02-13T01:35:46.330Z,8.82
2023-02-13T01:36:46.220Z,8.81
2023-02-13T01:37:46.218Z,8.81
2023-02-13T01:38:47.166Z,8.82
2023-02-13T01:39:46.219Z,8.85
2023-02-13T01:40:46.318Z,8.85
2023-02-13T01:41:46.223Z,8.87
2023-02-13T01:42:46.145Z,8.88
2023-02-13T01:43:46.170Z,8.85
2023-02-13T01:44:47.071Z,8.85
2023-02-13T01:45:46.131Z,8.84
2023-02-13T01:46:46.146Z,8.85
2023-02-13T01:47:46.206Z,8.87
2023-02-13T01:48:46.111Z,8.88
2023-02-13T01:49:46.095Z,8.85
2023-02-13T01:50:47.131Z,8.85
2023-02-13T01:51:46.045Z,8.81
2023-02-13T01:52:46.005Z,8.79
2023-02-13T01:53:46.084Z,8.76
2023-02-13T01:54:46.100Z,8.71
2023-02-13T01:55:45.951Z,8.63
2023-02-13T01:56:46.896Z,8.58
2023-02-13T01:57:45.996Z,8.56
2023-02-13T01:58:45.967Z,8.53
2023-02-13T01:59:45.959Z,8.53
2023-02-13T02:00:45.952Z,8.51
2023-02-13T02:01:46.925Z,8.49
2023-02-13T02:02:45.975Z,8.46
2023-02-13T02:03:45.904Z,8.41
2023-02-13T02:04:45.903Z,8.41
2023-02-13T02:05:45.911Z,8.38
2023-02-13T02:06:45.833Z,8.36
2023-02-13T02:07:46.730Z,8.30
2023-02-13T02:08:45.780Z,8.26
2023-02-13T02:09:45.807Z,8.26
2023-02-13T02:10:45.759Z,8.27
2023-02-13T02:11:45.807Z,8.20
2023-02-13T02:12:45.782Z,8.20
2023-02-13T02:13:46.685Z,8.16
2023-02-13T02:14:45.781Z,8.12
2023-02-13T02:15:45.755Z,8.10
2023-02-13T02:16:45.718Z,8.06
2023-02-13T02:17:45.732Z,8.03
2023-02-13T02:18:46.736Z,8.01
2023-02-13T02:19:45.741Z,7.98
2023-02-13T02:20:45.742Z,7.95
2023-02-13T02:21:45.633Z,7.93
2023-02-13T02:22:45.699Z,7.90
2023-02-13T02:23:46.551Z,7.90
2023-02-13T02:24:45.585Z,7.88
2023-02-13T02:25:45.702Z,7.90
2023-02-13T02:26:45.553Z,7.93
2023-02-13T02:27:45.574Z,7.95
2023-02-13T02:28:45.751Z,7.97
2023-02-13T02:29:46.465Z,7.95
2023-02-13T02:30:45.536Z,7.91
2023-02-13T02:31:45.593Z,7.83
2023-02-13T02:32:45.650Z,7.80
2023-02-13T02:33:45.462Z,7.77
2023-02-13T02:34:45.464Z,7.76
2023-02-13T02:35:46.386Z,7.75
2023-02-13T02:36:45.443Z,7.73
2023-02-13T02:37:45.612Z,7.73
2023-02-13T02:38:45.613Z,7.75
2023-02-13T02:39:45.437Z,7.77
2023-02-13T02:40:45.376Z,7.80
2023-02-13T02:41:46.366Z,7.82
2023-02-13T02:42:45.361Z,7.83
2023-02-13T02:43:45.354Z,7.82
2023-02-13T02:44:45.325Z,7.80
2023-02-13T02:45:45.335Z,7.82
2023-02-13T02:46:46.260Z,7.85
2023-02-13T02:47:45.368Z,7.85
2023-02-13T02:48:45.398Z,7.88
2023-02-13T02:49:45.261Z,7.93
2023-02-13T02:50:45.264Z,7.97
2023-02-13T02:51:46.246Z,8.00
2023-02-13T02:52:45.236Z,8.01
2023-02-13T02:53:45.197Z,8.01
2023-02-13T02:54:45.214Z,8.01
2023-02-13T02:55:45.189Z,8.01
2023-02-13T02:56:46.223Z,8.03
2023-02-13T02:57:45.156Z,8.06
2023-02-13T02:58:45.162Z,8.08
2023-02-13T02:59:45.138Z,8.12
2023-02-13T03:00:45.181Z,8.13
2023-02-13T03:01:46.085Z,8.16
2023-02-13T03:02:45.124Z,8.19
2023-02-13T03:03:45.170Z,8.13
2023-02-13T03:04:45.071Z,8.05
2023-02-13T03:05:45.126Z,7.93
2023-02-13T03:06:45.029Z,7.83
2023-02-13T03:07:45.949Z,7.82
2023-02-13T03:08:45.045Z,7.82
2023-02-13T03:09:45.017Z,7.80
2023-02-13T03:10:45.052Z,7.82
2023-02-13T03:11:44.950Z,7.83
2023-02-13T03:12:45.911Z,7.83
2023-02-13T03:13:44.975Z,7.87
2023-02-13T03:14:44.981Z,7.90
2023-02-13T03:15:45.024Z,7.93
2023-02-13T03:16:44.958Z,7.97
2023-02-13T03:17:44.895Z,7.94
2023-02-13T03:18:45.870Z,7.93
2023-02-13T03:19:44.892Z,7.88
2023-02-13T03:20:44.865Z,7.87
2023-02-13T03:21:44.861Z,7.83
2023-02-13T03:22:44.829Z,7.88
2023-02-13T03:23:44.927Z,7.91
2023-02-13T03:24:45.723Z,7.95
2023-02-13T03:25:44.852Z,8.00
2023-02-13T03:26:44.906Z,7.98
2023-02-13T03:27:44.746Z,7.98
2023-02-13T03:28:44.761Z,7.98
2023-02-13T03:29:44.772Z,8.00
2023-02-13T03:30:45.700Z,8.01
2023-02-13T03:31:44.780Z,8.06
2023-02-13T03:32:44.997Z,8.08
2023-02-13T03:33:44.696Z,8.12
2023-02-13T03:34:44.675Z,8.12
2023-02-13T03:35:45.627Z,8.13
2023-02-13T03:36:44.703Z,8.16
2023-02-13T03:37:44.629Z,8.16
2023-02-13T03:38:44.734Z,8.16
2023-02-13T03:39:44.608Z,8.18
2023-02-13T03:40:45.559Z,8.19
2023-02-13T03:41:44.585Z,8.20
2023-02-13T03:42:44.558Z,8.19
2023-02-13T03:43:44.542Z,8.15
2023-02-13T03:44:44.724Z,8.13
2023-02-13T03:45:44.594Z,8.08
2023-02-13T03:46:45.459Z,8.01
2023-02-13T03:47:44.649Z,7.94
2023-02-13T03:48:44.483Z,7.87
2023-02-13T03:49:44.477Z,7.79
2023-02-13T03:50:44.502Z,7.75
2023-02-13T03:51:45.447Z,7.73
2023-02-13T03:52:44.529Z,7.67
2023-02-13T03:53:44.421Z,7.66
2023-02-13T03:54:44.404Z,7.60
2023-02-13T03:55:44.538Z,7.60
2023-02-13T03:56:45.354Z,7.58
2023-02-13T03:57:44.387Z,7.60
2023-02-13T03:58:44.345Z,7.61
2023-02-13T03:59:44.329Z,7.66
2023-02-13T04:00:44.456Z,7.67
2023-02-13T04:01:45.263Z,7.70
2023-02-13T04:02:44.364Z,7.70
2023-02-13T04:03:44.281Z,7.69
2023-02-13T04:04:44.451Z,7.72
2023-02-13T04:05:44.273Z,7.70
2023-02-13T04:06:44.311Z,7.70
2023-02-13T04:07:45.170Z,7.67
2023-02-13T04:08:44.240Z,7.69
2023-02-13T04:09:44.291Z,7.69
2023-02-13T04:10:44.270Z,7.69
2023-02-13T04:11:44.239Z,7.70
2023-02-13T04:12:44.287Z,7.72
2023-02-13T04:13:45.188Z,7.70
2023-02-13T04:14:44.459Z,7.70
2023-02-13T04:15:44.137Z,7.70
2023-02-13T04:16:44.370Z,7.72
2023-02-13T04:17:44.182Z,7.70
2023-02-13T04:18:44.145Z,7.67
2023-02-13T04:19:45.010Z,7.60
2023-02-13T04:20:44.199Z,7.57
2023-02-13T04:21:44.040Z,7.56
2023-02-13T04:22:44.061Z,7.53
2023-02-13T04:23:44.052Z,7.51
2023-02-13T04:24:45.938Z,7.48
2023-02-13T04:25:44.013Z,7.45
2023-02-13T04:26:44.087Z,7.43
2023-02-13T04:27:44.068Z,7.39
2023-02-13T04:28:43.982Z,7.36
2023-02-13T04:29:43.974Z,7.31
2023-02-13T04:30:44.966Z,7.28
2023-02-13T04:31:44.059Z,7.25
2023-02-13T04:32:44.037Z,7.25
2023-02-13T04:33:43.892Z,7.21
2023-02-13T04:34:44.000Z,7.20
2023-02-13T04:35:44.822Z,7.20
2023-02-13T04:36:43.864Z,7.21
2023-02-13T04:37:43.865Z,7.21
2023-02-13T04:38:43.861Z,7.21
2023-02-13T04:39:43.822Z,7.20
2023-02-13T04:40:43.822Z,7.18
2023-02-13T04:41:44.726Z,7.17
2023-02-13T04:42:43.840Z,7.18
2023-02-13T04:43:43.796Z,7.18
2023-02-13T04:44:44.072Z,7.17
2023-02-13T04:45:43.880Z,7.20
2023-02-13T04:46:44.651Z,7.21
2023-02-13T04:47:43.777Z,7.21
2023-02-13T04:48:43.710Z,7.24
2023-02-13T04:49:43.696Z,7.28
2023-02-13T04:50:43.806Z,7.32
2023-02-13T04:51:43.691Z,7.33
2023-02-13T04:52:44.600Z,7.33
2023-02-13T04:53:43.764Z,7.33
2023-02-13T04:54:43.623Z,7.33
2023-02-13T04:55:43.624Z,7.36
2023-02-13T04:56:43.668Z,7.39
2023-02-13T04:57:44.522Z,7.39
2023-02-13T04:58:43.627Z,7.39
2023-02-13T04:59:43.601Z,7.43
2023-02-13T05:00:43.650Z,7.45
2023-02-13T05:01:43.651Z,7.47
2023-02-13T05:02:43.530Z,7.50
2023-02-13T05:03:44.460Z,7.53
2023-02-13T05:04:43.594Z,7.53
2023-02-13T05:05:43.632Z,7.51
2023-02-13T05:06:43.533Z,7.51
2023-02-13T05:07:43.514Z,7.51
2023-02-13T05:08:44.427Z,7.53
2023-02-13T05:09:43.475Z,7.54
2023-02-13T05:10:43.600Z,7.53
2023-02-13T05:11:43.492Z,7.53
2023-02-13T05:12:43.405Z,7.50
2023-02-13T05:13:43.522Z,7.50
2023-02-13T05:14:44.368Z,7.50
2023-02-13T05:15:43.448Z,7.51
2023-02-13T05:16:43.359Z,7.48
2023-02-13T05:17:43.366Z,7.48
2023-02-13T05:18:43.368Z,7.48
2023-02-13T05:19:44.353Z,7.51
2023-02-13T05:20:43.334Z,7.51
2023-02-13T05:21:43.285Z,7.54
2023-02-13T05:22:43.325Z,7.56
2023-02-13T05:23:43.252Z,7.57
2023-02-13T05:24:44.212Z,7.58
2023-02-13T05:25:43.275Z,7.58
2023-02-13T05:26:43.228Z,7.58
2023-02-13T05:27:43.258Z,7.61
2023-02-13T05:28:43.253Z,7.63
2023-02-13T05:29:43.180Z,7.61
2023-02-13T05:30:44.111Z,7.58
2023-02-13T05:31:43.273Z,7.57
2023-02-13T05:32:43.415Z,7.58
2023-02-13T05:33:43.213Z,7.63
2023-02-13T05:34:43.240Z,7.67
2023-02-13T05:35:44.028Z,7.67
2023-02-13T05:36:43.143Z,7.69
2023-02-13T05:37:43.084Z,7.72
2023-02-13T05:38:43.100Z,7.73
2023-02-13T05:39:43.083Z,7.72
2023-02-13T05:40:44.156Z,7.69
2023-02-13T05:41:43.066Z,7.61
2023-02-13T05:42:43.104Z,7.60
2023-02-13T05:43:43.047Z,7.58
2023-02-13T05:44:43.116Z,7.56
2023-02-13T05:45:42.975Z,7.56
2023-02-13T05:46:44.082Z,7.53
2023-02-13T05:47:42.969Z,7.54
2023-02-13T05:48:42.998Z,7.54
2023-02-13T05:49:42.995Z,7.53
2023-02-13T05:50:42.916Z,7.54
2023-02-13T05:51:42.974Z,7.56
2023-02-13T05:52:43.883Z,7.58
2023-02-13T05:53:42.878Z,7.61
2023-02-13T05:54:42.877Z,7.58
2023-02-13T05:55:42.864Z,7.56
2023-02-13T05:56:42.872Z,7.56
2023-02-13T05:57:42.829Z,7.53
2023-02-13T05:58:43.769Z,7.50
2023-02-13T05:59:42.843Z,7.47
2023-02-13T06:00:42.796Z,7.42
2023-02-13T06:01:42.787Z,7.42
2023-02-13T06:02:42.910Z,7.38
2023-02-13T06:03:43.832Z,7.36
2023-02-13T06:04:42.781Z,7.33
2023-02-13T06:05:42.805Z,7.33
2023-02-13T06:06:42.721Z,7.35
2023-02-13T06:07:42.741Z,7.35
2023-02-13T06:08:43.665Z,7.36
2023-02-13T06:09:42.673Z,7.38
2023-02-13T06:10:44.926Z,7.38
2023-02-13T06:11:42.661Z,7.35
2023-02-13T06:12:42.697Z,7.35
2023-02-13T06:13:42.615Z,7.32
2023-02-13T06:14:43.582Z,7.33
2023-02-13T06:15:42.649Z,7.35
2023-02-13T06:16:42.572Z,7.35
2023-02-13T06:17:42.660Z,7.35
2023-02-13T06:18:42.617Z,7.35
2023-02-13T06:19:42.631Z,7.33
2023-02-13T06:20:43.505Z,7.33
2023-02-13T06:21:42.590Z,7.31
2023-02-13T06:22:42.504Z,7.31
2023-02-13T06:23:42.494Z,7.29
2023-02-13T06:24:42.523Z,7.31
2023-02-13T06:25:42.438Z,7.31
2023-02-13T06:26:43.425Z,7.31
2023-02-13T06:27:42.449Z,7.31
2023-02-13T06:28:42.481Z,7.31
2023-02-13T06:29:42.396Z,7.32
2023-02-13T06:30:42.495Z,7.31
2023-02-13T06:31:43.387Z,7.31
2023-02-13T06:32:42.458Z,7.29
2023-02-13T06:33:42.388Z,7.29
2023-02-13T06:34:42.367Z,7.28
2023-02-13T06:35:42.330Z,7.31
2023-02-13T06:36:43.410Z,7.33
2023-02-13T06:37:42.363Z,7.31
2023-02-13T06:38:42.360Z,7.29
2023-02-13T06:39:42.281Z,7.29
2023-02-13T06:40:42.388Z,7.31
2023-02-13T06:41:42.332Z,7.31
2023-02-13T06:42:43.185Z,7.29
2023-02-13T06:43:42.231Z,7.25
2023-02-13T06:44:42.240Z,7.24
2023-02-13T06:45:42.210Z,7.23
2023-02-13T06:46:42.264Z,7.24
2023-02-13T06:47:43.156Z,7.24
2023-02-13T06:48:42.261Z,7.24
2023-02-13T06:49:42.237Z,7.28
2023-02-13T06:50:42.155Z,7.29
2023-02-13T06:51:42.136Z,7.32
2023-02-13T06:52:43.100Z,7.35
2023-02-13T06:53:42.124Z,7.38
2023-02-13T06:54:47.740Z,7.38
2023-02-13T06:55:43.588Z,7.39
2023-02-13T06:56:42.120Z,7.42
2023-02-13T06:57:42.156Z,7.42
2023-02-13T06:58:43.003Z,7.42
2023-02-13T06:59:42.069Z,7.42
2023-02-13T07:00:42.097Z,7.42
2023-02-13T07:01:42.084Z,7.43
2023-02-13T07:02:42.095Z,7.43
2023-02-13T07:03:42.984Z,7.42
2023-02-13T07:04:42.092Z,7.40
2023-02-13T07:05:42.004Z,7.39
2023-02-13T07:06:41.940Z,7.40
2023-02-13T07:07:41.985Z,7.39
2023-02-13T07:08:41.927Z,7.38
2023-02-13T07:09:42.928Z,7.35
2023-02-13T07:10:41.926Z,7.35
2023-02-13T07:11:41.979Z,7.36
2023-02-13T07:12:41.903Z,7.36
2023-02-13T07:13:41.853Z,7.36
2023-02-13T07:14:41.927Z,7.36
2023-02-13T07:15:42.779Z,7.36
2023-02-13T07:16:41.860Z,7.36
2023-02-13T07:17:41.837Z,7.36
2023-02-13T07:18:41.951Z,7.36
2023-02-13T07:19:41.796Z,7.38
2023-02-13T07:20:42.699Z,7.36
2023-02-13T07:21:41.780Z,7.35
2023-02-13T07:22:41.750Z,7.36
2023-02-13T07:23:41.807Z,7.38
2023-02-13T07:24:41.730Z,7.39
2023-02-13T07:25:43.566Z,7.39
2023-02-13T07:26:41.808Z,7.39
2023-02-13T07:27:42.441Z,7.40
2023-02-13T07:28:41.803Z,7.43
2023-02-13T07:29:41.646Z,7.43
2023-02-13T07:30:41.663Z,7.43
2023-02-13T07:31:42.612Z,7.40
2023-02-13T07:32:41.610Z,7.39
2023-02-13T07:33:42.083Z,7.39
2023-02-13T07:34:55.777Z,7.39
2023-02-13T07:35:43.278Z,7.40
2023-02-13T07:36:41.555Z,7.42
2023-02-13T07:37:42.494Z,7.40
2023-02-13T07:38:41.718Z,7.42
2023-02-13T07:39:41.560Z,7.45
2023-02-13T07:43:50.730Z,7.48
2023-02-13T07:44:35.316Z,7.50
2023-02-13T07:45:35.282Z,7.50
2023-02-13T07:46:35.412Z,7.47
2023-02-13T07:47:35.308Z,7.47
2023-02-13T07:48:35.309Z,7.45
2023-02-13T07:49:36.204Z,7.42
2023-02-13T07:50:35.326Z,7.42
2023-02-13T07:51:35.252Z,7.45
2023-02-13T07:52:35.234Z,7.47
2023-02-13T07:53:35.220Z,7.48
2023-02-13T07:54:35.251Z,7.50
2023-02-13T07:55:36.103Z,7.50
2023-02-13T07:56:35.142Z,7.47
2023-02-13T07:57:35.177Z,7.43
2023-02-13T07:58:35.156Z,7.40
2023-02-13T07:59:35.148Z,7.39
2023-02-13T08:00:35.148Z,7.39
2023-02-13T08:01:36.073Z,7.39
2023-02-13T08:02:35.067Z,7.40
2023-02-13T08:03:35.080Z,7.43
2023-02-13T08:04:35.041Z,7.45
2023-02-13T08:05:35.056Z,7.48
2023-02-13T08:06:35.049Z,7.53
2023-02-13T08:07:35.938Z,7.53
2023-02-13T08:08:35.007Z,7.51
2023-02-13T08:09:35.023Z,7.53
2023-02-13T08:10:34.999Z,7.51
2023-02-13T08:11:35.041Z,7.51
2023-02-13T08:12:35.906Z,7.53
2023-02-13T08:13:34.938Z,7.53
2023-02-13T08:14:35.053Z,7.58
2023-02-13T08:15:34.961Z,7.61
2023-02-13T08:16:34.922Z,7.63
2023-02-13T08:17:35.851Z,7.63
2023-02-13T08:18:35.004Z,7.67
2023-02-13T08:19:34.930Z,7.70
2023-02-13T08:20:34.853Z,7.73
2023-02-13T08:21:34.910Z,7.73
2023-02-13T08:22:34.804Z,7.73
2023-02-13T08:23:35.767Z,7.75
2023-02-13T08:24:34.811Z,7.75
2023-02-13T08:25:34.872Z,7.73
2023-02-13T08:26:34.795Z,7.73
2023-02-13T08:27:34.848Z,7.70
2023-02-13T08:28:35.759Z,7.67
2023-02-13T08:29:34.900Z,7.60
2023-02-13T08:30:34.746Z,7.57
2023-02-13T08:31:34.803Z,7.57
2023-02-13T08:32:44.909Z,7.56
2023-02-13T08:33:37.203Z,7.54
2023-02-13T08:34:34.694Z,7.50
2023-02-13T08:35:34.679Z,7.48
2023-02-13T08:36:34.671Z,7.47
2023-02-13T08:37:34.681Z,7.47
2023-02-13T08:38:35.616Z,7.48
2023-02-13T08:39:34.595Z,7.50
2023-02-13T08:40:34.671Z,7.48
2023-02-13T08:41:34.595Z,7.42
2023-02-13T08:42:34.575Z,7.43
2023-02-13T08:43:34.693Z,7.47
2023-02-13T08:44:35.469Z,7.48
2023-02-13T08:45:34.693Z,7.48
2023-02-13T08:46:34.696Z,7.48
2023-02-13T08:47:34.499Z,7.47
2023-02-13T08:48:34.503Z,7.45
2023-02-13T08:49:34.523Z,7.45
2023-02-13T08:50:37.039Z,7.47
2023-02-13T08:51:34.734Z,7.45
2023-02-13T08:52:34.537Z,7.47
2023-02-13T08:53:34.445Z,7.43
2023-02-13T08:54:34.449Z,7.45
2023-02-13T08:55:35.444Z,7.47
2023-02-13T08:56:34.404Z,7.45
2023-02-13T08:57:34.405Z,7.45
2023-02-13T08:58:34.393Z,7.48
2023-02-13T08:59:34.613Z,7.50
2023-02-13T09:00:35.305Z,7.51
2023-02-13T09:01:34.369Z,7.51
2023-02-13T09:02:34.399Z,7.51
2023-02-13T09:03:34.328Z,7.50
2023-02-13T09:04:34.554Z,7.50
2023-02-13T09:05:35.205Z,7.48
2023-02-13T09:06:34.339Z,7.50
2023-02-13T09:07:34.283Z,7.51
2023-02-13T09:08:34.491Z,7.53
2023-02-13T09:09:34.241Z,7.54
2023-02-13T09:10:34.241Z,7.51
2023-02-13T09:11:35.164Z,7.50
2023-02-13T09:12:34.188Z,7.45
2023-02-13T09:13:34.168Z,7.45
2023-02-13T09:14:34.177Z,7.47
2023-02-13T09:15:34.164Z,7.48
2023-02-13T09:16:35.111Z,7.47
2023-02-13T09:17:34.289Z,7.47
2023-02-13T09:18:34.144Z,7.45
2023-02-13T09:19:34.220Z,7.48
2023-02-13T09:20:35.948Z,7.51
2023-02-13T09:21:35.118Z,7.56
2023-02-13T09:22:34.068Z,7.54
2023-02-13T09:23:34.081Z,7.56
2023-02-13T09:24:34.058Z,7.60
2023-02-13T09:25:34.008Z,7.67
2023-02-13T09:26:34.233Z,7.70
2023-02-13T09:27:35.003Z,7.73
2023-02-13T09:28:34.055Z,7.75
2023-02-13T09:29:33.997Z,7.77
2023-02-13T09:30:33.983Z,7.80
2023-02-13T09:31:34.040Z,7.79
2023-02-13T09:32:33.928Z,7.77
2023-02-13T09:33:34.905Z,7.82
2023-02-13T09:34:34.181Z,7.88
2023-02-13T09:35:33.929Z,7.91
2023-02-13T09:36:33.980Z,7.88
2023-02-13T09:37:33.877Z,7.82
2023-02-13T09:38:33.872Z,7.76
2023-02-13T09:39:34.837Z,7.73
2023-02-13T09:40:33.840Z,7.72
2023-02-13T09:41:33.850Z,7.67
2023-02-13T09:42:33.952Z,7.60
2023-02-13T09:43:33.833Z,7.58
2023-02-13T09:44:34.063Z,7.57
2023-02-13T09:45:34.753Z,7.58
2023-02-13T09:46:33.801Z,7.61
2023-02-13T09:47:33.788Z,7.61
2023-02-13T09:48:33.727Z,7.60
2023-02-13T09:49:33.728Z,7.60
2023-02-13T09:50:34.639Z,7.60
2023-02-13T09:51:33.716Z,7.66
2023-02-13T09:52:33.722Z,7.63
2023-02-13T09:53:33.693Z,7.61
2023-02-13T09:54:33.650Z,7.63
2023-02-13T09:55:33.660Z,7.63
2023-02-13T09:56:34.561Z,7.66
2023-02-13T09:57:33.629Z,7.66
2023-02-13T09:58:33.644Z,7.69
2023-02-13T09:59:33.773Z,7.67
2023-02-13T10:00:33.623Z,7.61
2023-02-13T10:01:33.778Z,7.60
2023-02-13T10:02:34.499Z,7.60
2023-02-13T10:03:33.617Z,7.67
2023-02-13T10:04:33.588Z,7.72
2023-02-13T10:05:33.757Z,7.72
2023-02-13T10:06:33.507Z,7.73
2023-02-13T10:07:34.463Z,7.73
2023-02-13T10:08:33.533Z,7.70
2023-02-13T10:09:33.590Z,7.73
2023-02-13T10:10:33.482Z,7.73
2023-02-13T10:11:33.475Z,7.70
2023-02-13T10:12:33.456Z,7.67
2023-02-13T10:13:34.386Z,7.67
2023-02-13T10:14:33.428Z,7.69
2023-02-13T10:15:33.431Z,7.73
2023-02-13T10:16:33.408Z,7.80
2023-02-13T10:17:33.518Z,7.87
2023-02-13T10:18:33.409Z,7.90
2023-02-13T10:19:34.325Z,7.97
2023-02-13T10:20:33.363Z,8.05
2023-02-13T10:21:33.348Z,8.12
2023-02-13T10:22:33.405Z,8.19
2023-02-13T10:23:33.453Z,8.13
2023-02-13T10:24:33.327Z,8.05
2023-02-13T10:25:34.229Z,8.05
2023-02-13T10:26:33.419Z,8.06
2023-02-13T10:27:33.257Z,8.12
2023-02-13T10:28:33.285Z,8.16
2023-02-13T10:29:33.339Z,8.09
2023-02-13T10:30:34.321Z,8.06
2023-02-13T10:31:35.334Z,8.03
2023-02-13T10:32:33.194Z,8.00
2023-02-13T10:33:33.201Z,8.00
2023-02-13T10:34:33.289Z,8.01
2023-02-13T10:35:34.101Z,8.00
2023-02-13T10:36:33.147Z,7.98
2023-02-13T10:37:33.128Z,7.95
2023-02-13T10:38:33.267Z,7.93
2023-02-13T10:39:33.096Z,7.95
2023-02-13T10:40:33.096Z,8.00
2023-02-13T10:41:34.086Z,8.01
2023-02-13T10:42:35.156Z,7.97
2023-02-13T10:43:33.061Z,7.98
2023-02-13T10:44:33.080Z,8.01
2023-02-13T10:45:33.033Z,7.98
2023-02-13T10:46:34.067Z,7.98
2023-02-13T10:47:33.130Z,8.00
2023-02-13T10:48:33.092Z,8.03
2023-02-13T10:49:33.124Z,8.08
2023-02-13T10:50:32.952Z,8.15
2023-02-13T10:51:33.018Z,8.24
2023-02-13T10:52:33.878Z,8.33
2023-02-13T10:53:32.977Z,8.36
2023-02-13T10:54:32.956Z,8.37
2023-02-13T10:55:32.894Z,8.41
2023-02-13T10:56:32.946Z,8.36
2023-02-13T10:57:32.915Z,8.34
2023-02-13T10:58:33.831Z,8.33
2023-02-13T10:59:32.896Z,8.33
2023-02-13T11:00:32.884Z,8.36
2023-02-13T11:01:32.894Z,8.42
2023-02-13T11:02:32.855Z,8.45
2023-02-13T11:03:32.836Z,8.45
2023-02-13T11:04:33.784Z,8.48
2023-02-13T11:05:32.862Z,8.49
2023-02-13T11:06:32.800Z,8.53
2023-02-13T11:07:32.829Z,8.58
2023-02-13T11:08:32.770Z,8.67
2023-02-13T11:09:33.720Z,8.73
2023-02-13T11:10:32.725Z,8.71
2023-02-13T11:11:32.750Z,8.70
2023-02-13T11:12:32.676Z,8.71
2023-02-13T11:13:32.696Z,8.78
2023-02-13T11:14:32.678Z,8.82
2023-02-13T11:15:33.695Z,8.79
2023-02-13T11:16:32.919Z,8.85
2023-02-13T11:17:32.622Z,8.91
2023-02-13T11:18:32.625Z,9.00
2023-02-13T11:19:32.647Z,9.10
2023-02-13T11:20:33.529Z,9.16
2023-02-13T11:21:32.548Z,9.21
2023-02-13T11:22:32.588Z,9.14
2023-02-13T11:23:32.666Z,9.02
2023-02-13T11:24:32.514Z,8.95
2023-02-13T11:25:33.585Z,8.92
2023-02-13T11:26:32.538Z,8.89
2023-02-13T11:27:32.703Z,8.92
2023-02-13T11:28:32.599Z,8.97
2023-02-13T11:29:32.480Z,9.00
2023-02-13T11:30:33.429Z,9.04
2023-02-13T11:31:32.550Z,9.04
2023-02-13T11:32:32.429Z,9.00
2023-02-13T11:33:32.471Z,9.00
2023-02-13T11:34:32.411Z,8.94
2023-02-13T11:35:33.375Z,8.91
2023-02-13T11:36:32.394Z,8.84
2023-02-13T11:37:32.393Z,8.85
2023-02-13T11:38:32.437Z,8.88
2023-02-13T11:39:32.358Z,8.89
2023-02-13T11:40:32.419Z,8.91
2023-02-13T11:41:33.268Z,8.97
2023-02-13T11:42:32.380Z,9.03
2023-02-13T11:43:32.353Z,9.06
2023-02-13T11:44:32.294Z,9.10
2023-02-13T11:45:32.345Z,9.18
2023-02-13T11:46:33.199Z,9.25
2023-02-13T11:47:32.345Z,9.34
2023-02-13T11:48:32.277Z,9.40
2023-02-13T11:49:32.280Z,9.46
2023-02-13T11:50:32.855Z,9.47
2023-02-13T11:51:32.208Z,9.47
2023-02-13T11:52:33.128Z,9.47
2023-02-13T11:53:32.157Z,9.48
2023-02-13T11:54:32.166Z,9.48
2023-02-13T11:55:32.153Z,9.41
2023-02-13T11:56:32.117Z,9.31
2023-02-13T11:57:32.248Z,9.28
2023-02-13T11:58:33.124Z,9.29
2023-02-13T11:59:32.075Z,9.32
2023-02-13T12:00:32.078Z,9.37
2023-02-13T12:01:32.096Z,9.37
2023-02-13T12:02:32.158Z,9.40
2023-02-13T12:03:32.116Z,9.43
2023-02-13T12:04:32.986Z,9.48
2023-02-13T12:05:32.011Z,9.50
2023-02-13T12:06:33.630Z,9.56
2023-02-13T12:07:32.036Z,9.59
2023-02-13T12:08:32.040Z,9.64
2023-02-13T12:09:32.895Z,9.66
2023-02-13T12:10:32.010Z,9.64
2023-02-13T12:11:32.048Z,9.51
2023-02-13T12:12:31.979Z,9.43
2023-02-13T12:13:32.029Z,9.40
2023-02-13T12:14:31.895Z,9.43
2023-02-13T12:15:32.863Z,9.46
2023-02-13T12:16:32.060Z,9.43
2023-02-13T12:17:32.630Z,9.39
2023-02-13T12:18:31.923Z,9.39
2023-02-13T12:19:31.812Z,9.43
2023-02-13T12:20:31.828Z,9.41
2023-02-13T12:21:32.821Z,9.41
2023-02-13T12:22:33.854Z,9.43
2023-02-13T12:23:31.807Z,9.34
2023-02-13T12:24:31.853Z,9.22
2023-02-13T12:25:31.751Z,9.11
2023-02-13T12:26:31.759Z,9.00
2023-02-13T12:27:32.749Z,8.88
2023-02-13T12:28:31.778Z,8.74
2023-02-13T12:29:32.630Z,8.67
2023-02-13T12:30:31.710Z,8.58
2023-02-13T12:31:31.772Z,8.52
2023-02-13T12:32:31.652Z,8.49
2023-02-13T12:33:32.613Z,8.48
2023-02-13T12:34:31.685Z,8.46
2023-02-13T12:35:31.780Z,8.46
2023-02-13T12:36:31.679Z,8.44
2023-02-13T12:37:31.641Z,8.46
2023-02-13T12:38:31.718Z,8.51
2023-02-13T12:39:32.584Z,8.56
2023-02-13T12:40:31.636Z,8.64
2023-02-13T12:41:31.672Z,8.71
2023-02-13T12:43:29.435Z,8.87
2023-02-13T12:44:30.343Z,8.89
2023-02-13T12:45:29.493Z,8.97
2023-02-13T12:46:29.380Z,8.99
2023-02-13T12:47:29.362Z,9.00
2023-02-13T12:48:29.398Z,9.03
2023-02-13T12:49:29.367Z,9.08
2023-02-13T12:50:30.270Z,9.10
2023-02-13T12:51:29.332Z,9.13
2023-02-13T12:52:29.319Z,9.13
2023-02-13T12:53:30.260Z,9.19
2023-02-13T12:54:29.305Z,9.22
2023-02-13T12:55:30.214Z,9.26
2023-02-13T12:56:29.298Z,9.34
2023-02-13T12:57:29.251Z,9.40
2023-02-13T12:58:29.260Z,9.46
2023-02-13T12:59:29.222Z,9.51
2023-02-13T13:00:30.175Z,9.56
2023-02-13T13:01:29.265Z,9.61
2023-02-13T13:02:29.216Z,9.64
2023-02-13T13:03:29.216Z,9.65
2023-02-13T13:04:29.173Z,9.68
2023-02-13T13:05:29.171Z,9.69
2023-02-13T13:06:30.100Z,9.72
2023-02-13T13:07:29.120Z,9.76
2023-02-13T13:08:29.101Z,9.80
2023-02-13T13:09:29.110Z,9.83
2023-02-13T13:10:29.071Z,9.86
2023-02-13T13:11:29.117Z,9.89
2023-02-13T13:12:29.988Z,9.94
2023-02-13T13:13:29.061Z,9.94
2023-02-13T13:14:29.032Z,9.92
2023-02-13T13:15:29.088Z,9.92
2023-02-13T13:16:29.059Z,9.92
2023-02-13T13:17:29.003Z,9.95
2023-02-13T13:18:29.940Z,9.97
2023-02-13T13:19:28.997Z,9.99
2023-02-13T13:20:28.980Z,10.02
2023-02-13T13:21:29.056Z,10.04
2023-02-13T13:22:28.930Z,10.05